Time;durP1;ratioP1;P1;durP2;ratioP2;P2;SDS_P1;SDS_P2;PMS_P1;PMS_P2;Temp;Humidity;BMP_temperature;BMP_pressure;BME280_temperature;BME280_humidity;BME280_pressure;Samples;Min_cycle;Max_cycle;Signal;HPM_P1;HPM_P2
2022/01/23 00:02:18;;;;;;;12.40;8.25;;;;;;;-3.73;75.65;100503.53;5070470;28;20106;-21
2022/01/23 00:04:44;;;;;;;13.10;8.07;;;;;;;-3.57;75.79;100517.06;5070773;28;20078;-21
2022/01/23 00:07:12;;;;;;;14.60;7.72;;;;;;;-3.69;75.83;100513.59;5070479;28;20028;-21
2022/01/23 00:09:38;;;;;;;13.65;7.80;;;;;;;-3.47;75.55;100527.63;5070571;28;20029;-22
2022/01/23 00:12:09;;;;;;;14.90;8.48;;;;;;;-3.74;76.71;100512.28;5068577;28;20036;-21
2022/01/23 00:17:20;;;;;;;14.45;8.50;;;;;;;-3.05;73.65;100544.34;5070334;28;20507;-22
2022/01/23 00:19:50;;;;;;;13.48;8.18;;;;;;;-3.01;72.91;100544.94;5070540;28;20028;-21
2022/01/23 00:22:17;;;;;;;14.35;8.98;;;;;;;-3.29;73.93;100531.44;5069003;28;20037;-21
2022/01/23 00:30:25;;;;;;;13.70;7.78;;;;;;;-3.93;73.62;100518.03;5068850;28;20082;-22
2022/01/23 00:32:50;;;;;;;30.70;20.90;;;;;;;-3.99;71.89;100521.09;5070300;28;20035;-21
2022/01/23 00:35:16;;;;;;;14.82;9.15;;;;;;;-3.40;69.66;100539.22;5068641;28;20028;-21
2022/01/23 00:37:42;;;;;;;17.25;12.38;;;;;;;-3.47;69.39;100549.31;5069900;28;20486;-22
2022/01/23 00:40:07;;;;;;;16.27;7.30;;;;;;;-3.81;70.85;100540.59;5068287;28;20495;-21
2022/01/23 00:42:34;;;;;;;12.80;6.28;;;;;;;-3.93;72.23;100547.53;5069895;28;20507;-21
2022/01/23 00:45:24;;;;;;;11.25;5.50;;;;;;;-3.84;71.38;100548.66;5069816;28;20037;-21
2022/01/23 00:47:45;;;;;;;10.45;5.20;;;;;;;-3.95;71.80;100561.63;5069553;28;20139;-21
2022/01/23 00:50:10;;;;;;;7.80;4.35;;;;;;;-4.28;72.00;100550.13;5069534;28;20047;-21
2022/01/23 00:52:36;;;;;;;8.63;5.10;;;;;;;-4.28;72.55;100552.72;5070109;28;20043;-22
2022/01/23 00:55:04;;;;;;;9.60;5.30;;;;;;;-4.55;72.24;100519.94;5069934;28;20032;-21
2022/01/23 00:57:30;;;;;;;;;;;;;;;-4.34;71.95;100556.59;5068920;28;20031;-21
2022/01/23 00:59:55;;;;;;;8.18;4.60;;;;;;;-4.32;71.89;100551.28;5069444;28;19916;-21
2022/01/23 01:02:20;;;;;;;8.85;4.78;;;;;;;-4.23;70.97;100566.22;5069706;28;20040;-22
2022/01/23 01:04:46;;;;;;;8.45;4.70;;;;;;;-4.23;70.48;100555.81;5067919;28;20090;-21
2022/01/23 01:07:11;;;;;;;9.30;5.15;;;;;;;-4.15;70.82;100563.91;5068684;28;20036;-22
2022/01/23 01:09:37;;;;;;;9.68;4.47;;;;;;;-4.04;69.89;100556.16;5068113;28;20801;-21
2022/01/23 01:12:05;;;;;;;8.98;4.43;;;;;;;-4.23;71.04;100550.59;5069123;28;20424;-21
2022/01/23 01:30:09;;;;;;;8.73;4.18;;;;;;;-4.17;71.98;100554.53;5023826;28;20199;-21
2022/01/23 01:31:30;;;;;;;8.40;4.28;;;;;;;-4.24;73.19;100539.34;5067878;28;20403;-21
2022/01/23 01:34:21;;;;;;;10.75;4.90;;;;;;;-4.39;74.90;100560.47;5068658;28;20411;-21
2022/01/23 01:39:10;;;;;;;9.15;4.10;;;;;;;-4.57;76.47;100553.03;5068994;28;20032;-21
2022/01/23 01:41:36;;;;;;;9.13;4.18;;;;;;;-4.58;76.19;100534.94;5067576;28;20036;-22
2022/01/23 01:44:02;;;;;;;9.90;4.85;;;;;;;-4.51;76.25;100537.00;5068588;28;20028;-21
2022/01/23 01:46:28;;;;;;;11.27;4.97;;;;;;;-4.56;76.80;100548.66;5068461;28;20035;-21
2022/01/23 01:48:54;;;;;;;8.95;3.72;;;;;;;-4.63;76.93;100526.63;5068992;28;20029;-21
2022/01/23 01:51:19;;;;;;;11.20;4.40;;;;;;;-4.55;77.67;100558.97;5068693;28;20101;-22
2022/01/23 01:53:51;;;;;;;7.72;3.95;;;;;;;-4.51;77.17;100559.59;5068560;28;20086;-21
2022/01/23 01:56:16;;;;;;;10.32;5.32;;;;;;;-4.61;77.25;100555.97;5068546;28;20033;-21
2022/01/23 02:02:47;;;;;;;9.90;4.63;;;;;;;-4.60;77.05;100566.25;5068180;28;20115;-21
2022/01/23 02:55:09;;;;;;;9.38;5.00;;;;;;;-4.35;71.10;100583.59;5067649;28;20032;-21
2022/01/23 03:00:13;;;;;;;8.63;3.88;;;;;;;-4.24;69.14;100596.66;5067569;28;20143;-21
2022/01/23 03:02:44;;;;;;;7.78;3.70;;;;;;;-4.21;69.27;100595.59;5082976;28;20032;-21
2022/01/23 03:05:13;;;;;;;11.73;4.47;;;;;;;-4.27;68.84;100575.19;5067354;28;20032;-21
2022/01/23 03:10:20;;;;;;;9.13;4.10;;;;;;;-4.31;68.28;100581.56;5066138;28;20503;-22
2022/01/23 03:15:46;;;;;;;8.98;4.30;;;;;;;-4.39;68.94;100586.50;5065860;28;20033;-21
2022/01/23 03:29:18;;;;;;;11.82;6.47;;;;;;;-4.13;67.75;100603.69;5067121;28;20024;-21
2022/01/23 03:31:52;;;;;;;12.52;6.13;;;;;;;-4.08;67.67;100596.38;5066428;28;20037;-23
2022/01/23 03:34:19;;;;;;;13.63;5.05;;;;;;;-4.34;67.80;100615.66;5067188;28;20103;-21
2022/01/23 03:36:45;;;;;;;13.15;5.90;;;;;;;-4.24;67.83;100590.63;5066811;28;20031;-21
2022/01/23 03:39:10;;;;;;;11.82;5.32;;;;;;;-4.40;67.76;100610.88;5065497;28;20032;-20
2022/01/23 03:41:37;;;;;;;12.40;5.18;;;;;;;-4.58;68.36;100606.03;5067038;28;20044;-22
2022/01/23 03:44:04;;;;;;;7.35;3.83;;;;;;;-4.67;68.64;100598.88;5066654;28;20029;-22
2022/01/23 03:51:55;;;;;;;13.90;5.57;;;;;;;-4.35;68.51;100619.19;5066828;28;20040;-21
2022/01/23 03:54:20;;;;;;;9.93;4.93;;;;;;;-4.45;68.11;100604.22;5065369;28;20029;-21
2022/01/23 03:56:45;;;;;;;10.98;5.18;;;;;;;-4.32;67.92;100629.41;5066825;28;20636;-21
2022/01/23 03:59:11;;;;;;;10.43;5.20;;;;;;;-4.35;67.24;100619.19;5066677;28;20101;-21
2022/01/23 04:01:36;;;;;;;12.43;6.68;;;;;;;-4.31;67.29;100636.25;5066683;28;20499;-21
2022/01/23 04:04:08;;;;;;;14.10;6.78;;;;;;;-4.41;66.06;100609.22;5065999;28;20036;-22
2022/01/23 04:06:34;;;;;;;9.20;5.65;;;;;;;-4.32;66.73;100645.03;5066947;28;20067;-21
2022/01/23 04:08:59;;;;;;;10.30;5.00;;;;;;;-4.41;66.13;100635.25;5066809;28;20400;-21
2022/01/23 04:11:24;;;;;;;11.85;5.10;;;;;;;-4.53;66.74;100611.75;5066818;28;20039;-21
2022/01/23 04:14:05;;;;;;;10.40;5.22;;;;;;;-4.44;66.56;100626.72;5066501;28;20476;-21
2022/01/23 04:45:18;;;;;;;10.88;5.50;;;;;;;-4.12;63.95;100647.03;5066364;28;20151;-21
2022/01/23 04:59:49;;;;;;;9.68;4.80;;;;;;;-4.54;66.49;100641.31;5069814;28;20877;-21
2022/01/23 05:03:00;;;;;;;10.13;4.60;;;;;;;-4.50;66.25;100645.38;5069451;28;20044;-21
2022/01/23 05:05:09;;;;;;;9.35;4.80;;;;;;;-4.37;66.27;100662.72;5069379;28;20083;-21
2022/01/23 05:07:34;;;;;;;10.55;4.70;;;;;;;-4.16;66.15;100671.63;5069543;28;20058;-21
2022/01/23 05:10:00;;;;;;;12.80;5.05;;;;;;;-3.82;64.66;100669.25;5067755;28;20032;-21
2022/01/23 05:12:30;;;;;;;11.15;5.10;;;;;;;-4.13;65.49;100649.75;5069333;28;20036;-23
2022/01/23 05:14:55;;;;;;;10.00;4.40;;;;;;;-3.92;64.27;100663.03;5069428;28;20032;-21
2022/01/23 05:17:21;;;;;;;9.38;4.97;;;;;;;-3.73;64.06;100685.97;5067939;28;20032;-21
2022/01/23 05:19:46;;;;;;;28.05;10.98;;;;;;;-3.59;62.77;100669.34;5069136;28;20036;-21
2022/01/23 05:25:31;;;;;;;18.23;8.98;;;;;;;-3.88;63.63;100674.88;5068925;28;20091;-21
2022/01/23 05:27:35;;;;;;;71.70;30.50;;;;;;;-4.05;63.60;100678.69;5063231;28;20177;-21
2022/01/23 05:30:01;;;;;;;68.45;30.85;;;;;;;-4.08;63.88;100695.38;5069039;28;20060;-21
2022/01/23 05:32:28;;;;;;;128.52;63.35;;;;;;;-3.91;63.88;100695.94;5068957;28;20036;-22
2022/01/23 05:34:55;;;;;;;33.38;16.83;;;;;;;-4.12;64.24;100678.28;5068768;28;20432;-21
2022/01/23 05:37:20;;;;;;;16.02;8.63;;;;;;;-4.26;64.06;100675.84;5068924;28;20037;-21
2022/01/23 05:39:46;;;;;;;29.08;12.88;;;;;;;-4.10;63.35;100686.84;5068427;28;20029;-21
2022/01/23 05:42:11;;;;;;;26.75;12.23;;;;;;;-4.12;63.07;100704.34;5068860;28;20047;-21
2022/01/23 05:44:40;;;;;;;50.30;21.55;;;;;;;-4.34;63.90;100698.97;5069000;28;20029;-21
2022/01/23 05:47:06;;;;;;;34.63;18.33;;;;;;;-4.32;64.13;100702.31;5051038;28;20032;-21
2022/01/23 05:49:32;;;;;;;62.47;31.27;;;;;;;-4.16;64.19;100708.09;5068762;28;20043;-21
2022/01/23 05:51:57;;;;;;;16.60;6.88;;;;;;;-4.17;65.27;100695.19;5068302;28;20024;-21
2022/01/23 05:54:23;;;;;;;36.50;23.95;;;;;;;-4.20;65.46;100711.03;5066619;28;20032;-21
2022/01/23 05:56:48;;;;;;;15.13;6.20;;;;;;;-4.06;66.46;100721.31;5068523;28;20032;-22
2022/01/23 05:59:13;;;;;;;14.70;7.97;;;;;;;-3.85;65.36;100717.19;5068514;28;20503;-22
2022/01/23 06:01:39;;;;;;;15.55;6.57;;;;;;;-3.84;65.83;100712.81;5068568;28;20444;-21
2022/01/23 06:04:04;;;;;;;21.15;9.65;;;;;;;-3.73;65.89;100720.69;5068093;28;20043;-22
2022/01/23 06:06:30;;;;;;;34.00;12.48;;;;;;;-3.58;65.57;100725.72;5068001;28;20105;-21
2022/01/23 06:08:55;;;;;;;22.15;9.77;;;;;;;-3.96;66.20;100719.72;5068261;28;20131;-21
2022/01/23 06:11:21;;;;;;;19.40;9.55;;;;;;;-3.90;67.49;100727.13;5068269;28;20518;-22
2022/01/23 06:13:46;;;;;;;20.25;8.57;;;;;;;-3.71;65.86;100729.22;5068019;28;20043;-21
2022/01/23 06:16:12;;;;;;;38.13;14.50;;;;;;;-3.67;65.54;100730.66;5068154;28;20028;-22
2022/01/23 06:18:40;;;;;;;14.45;6.45;;;;;;;-3.79;66.24;100728.94;5068161;28;20044;-21
2022/01/23 06:21:07;;;;;;;13.68;7.13;;;;;;;-3.83;66.33;100717.06;5068169;28;20028;-21
2022/01/23 06:23:32;;;;;;;13.77;5.43;;;;;;;-3.58;66.30;100736.16;5067999;28;20086;-21
2022/01/23 06:25:58;;;;;;;10.32;5.10;;;;;;;-3.65;66.26;100736.59;5067546;28;20161;-21
2022/01/23 06:28:45;;;;;;;11.10;5.35;;;;;;;-3.64;66.24;100740.03;5066680;28;20029;-22
2022/01/23 06:31:11;;;;;;;12.48;5.85;;;;;;;-3.55;66.17;100749.00;5066629;28;20048;-23
2022/01/23 06:33:36;;;;;;;13.23;6.72;;;;;;;-3.41;65.80;100753.19;5068254;28;20139;-21
2022/01/23 06:36:03;;;;;;;9.93;4.80;;;;;;;-3.25;65.25;100731.09;5066214;28;20032;-22
2022/01/23 06:38:28;;;;;;;9.68;4.80;;;;;;;-3.04;64.72;100739.09;5067514;28;20446;-21
2022/01/23 06:40:54;;;;;;;9.13;4.47;;;;;;;-2.95;64.88;100745.41;5067520;28;20031;-21
2022/01/23 06:43:19;;;;;;;9.15;5.03;;;;;;;-2.72;63.93;100748.88;5067609;28;20078;-21
2022/01/23 06:45:45;;;;;;;10.93;5.05;;;;;;;-2.71;64.05;100745.34;5067066;28;20075;-21
2022/01/23 06:48:10;;;;;;;8.88;5.15;;;;;;;-2.44;63.94;100760.69;5067381;28;20043;-21
2022/01/23 06:50:36;;;;;;;9.63;4.97;;;;;;;-2.14;63.24;100754.03;5067343;28;20039;-21
2022/01/23 06:53:01;;;;;;;10.52;5.60;;;;;;;-2.12;62.66;100751.31;5067433;28;20480;-22
2022/01/23 06:55:27;;;;;;;12.48;5.55;;;;;;;-2.35;63.25;100733.03;5067477;28;20029;-21
2022/01/23 06:57:52;;;;;;;13.38;5.65;;;;;;;-1.84;62.35;100756.03;5067207;28;20032;-21
2022/01/23 07:00:18;;;;;;;14.38;7.07;;;;;;;-1.55;62.06;100760.72;5067287;28;20035;-21
2022/01/23 07:02:43;;;;;;;15.02;7.28;;;;;;;-1.44;62.19;100767.72;5067261;28;20043;-21
2022/01/23 07:05:08;;;;;;;14.82;6.88;;;;;;;-1.47;61.39;100766.19;5065092;28;20029;-20
2022/01/23 07:07:34;;;;;;;10.77;5.55;;;;;;;-1.31;61.61;100752.69;5067026;28;20473;-21
2022/01/23 07:09:59;;;;;;;15.43;7.10;;;;;;;-1.05;61.30;100752.31;5067129;28;20028;-22
2022/01/23 07:12:25;;;;;;;13.00;6.97;;;;;;;-0.84;61.24;100761.03;5066989;28;20048;-21
2022/01/23 07:14:50;;;;;;;13.02;6.40;;;;;;;-0.57;60.58;100757.06;5067100;28;20028;-21
2022/01/23 07:17:16;;;;;;;9.52;4.95;;;;;;;-0.42;59.81;100760.16;5067233;28;20846;-21
2022/01/23 07:19:41;;;;;;;10.38;5.43;;;;;;;-0.11;58.92;100757.53;5066801;28;20119;-21
2022/01/23 07:22:07;;;;;;;12.48;6.03;;;;;;;-0.10;58.40;100739.06;5067062;28;20029;-21
2022/01/23 07:24:32;;;;;;;10.07;4.72;;;;;;;-0.26;59.23;100760.50;5066794;28;20091;-21
2022/01/23 07:27:01;;;;;;;9.05;4.55;;;;;;;-0.21;58.09;100744.38;5067253;28;20033;-21
2022/01/23 07:29:27;;;;;;;8.82;4.38;;;;;;;-0.11;58.90;100760.97;5066745;28;20051;-21
2022/01/23 07:32:06;;;;;;;10.10;4.50;;;;;;;-0.13;58.93;100743.72;5066856;28;20032;-22
2022/01/23 07:34:31;;;;;;;;;;;;;;;-0.23;58.47;100764.66;5067304;28;20115;-21
2022/01/23 07:36:56;;;;;;;38.08;15.07;;;;;;;-0.45;60.28;100760.41;5066728;28;20653;-21
2022/01/23 07:39:22;;;;;;;8.25;4.30;;;;;;;-0.49;58.04;100759.84;5066696;28;20039;-21
2022/01/23 07:41:47;;;;;;;9.00;4.35;;;;;;;-0.68;58.42;100757.13;5065341;28;20423;-21
2022/01/23 07:44:13;;;;;;;8.80;4.25;;;;;;;-0.95;59.66;100758.47;5067108;28;20024;-21
2022/01/23 07:46:38;;;;;;;9.35;4.53;;;;;;;-0.69;59.33;100753.66;5066494;28;20033;-22
2022/01/23 07:49:04;;;;;;;30.80;12.25;;;;;;;-0.58;59.63;100755.38;5066536;28;20037;-21
2022/01/23 07:51:29;;;;;;;8.93;4.53;;;;;;;-0.74;59.49;100762.88;5065246;28;20029;-21
2022/01/23 07:53:55;;;;;;;19.67;6.85;;;;;;;-0.77;61.14;100750.03;5066902;28;20024;-22
2022/01/23 07:56:20;;;;;;;19.67;7.75;;;;;;;-0.76;60.35;100759.53;5066871;28;20055;-21
2022/01/23 07:58:46;;;;;;;16.80;7.18;;;;;;;-0.78;59.62;100761.47;5066836;28;20040;-21
2022/01/23 08:01:11;;;;;;;18.75;6.70;;;;;;;-0.95;61.19;100761.06;5066649;28;20036;-21
2022/01/23 08:03:37;;;;;;;10.05;4.72;;;;;;;-1.15;60.46;100736.53;5065809;28;20036;-21
2022/01/23 08:06:04;;;;;;;9.18;4.72;;;;;;;-0.93;59.97;100756.53;5066428;28;20033;-21
2022/01/23 08:08:30;;;;;;;7.05;3.50;;;;;;;-1.15;60.37;100756.66;5066063;28;20119;-21
2022/01/23 08:10:55;;;;;;;10.40;4.57;;;;;;;-1.26;60.49;100755.75;5066624;28;20112;-21
2022/01/23 08:13:21;;;;;;;22.80;8.25;;;;;;;-1.13;61.12;100765.22;5066553;28;20734;-21
2022/01/23 08:15:46;;;;;;;24.00;8.50;;;;;;;-1.05;61.38;100758.38;5066056;28;20039;-21
2022/01/23 08:18:11;;;;;;;29.95;10.05;;;;;;;-0.84;59.80;100760.19;5069226;28;20496;-22
2022/01/23 08:20:37;;;;;;;17.02;7.70;;;;;;;-0.82;60.27;100747.78;5069324;28;20447;-21
2022/01/23 08:23:03;;;;;;;26.77;8.82;;;;;;;-0.91;59.10;100744.16;5069144;28;20036;-21
2022/01/23 08:25:30;;;;;;;10.05;4.47;;;;;;;-1.00;59.73;100750.16;5070043;28;20064;-21
2022/01/23 08:27:55;;;;;;;13.70;5.20;;;;;;;-1.08;59.36;100742.13;5069835;28;20059;-21
2022/01/23 08:30:21;;;;;;;11.13;5.50;;;;;;;-0.98;59.45;100753.50;5069810;28;20050;-21
2022/01/23 08:32:47;;;;;;;19.73;7.15;;;;;;;-0.90;59.38;100753.69;5070331;28;20036;-22
2022/01/23 08:35:12;;;;;;;13.20;6.07;;;;;;;-0.90;59.77;100756.31;5069329;28;20032;-21
2022/01/23 08:37:38;;;;;;;16.40;6.82;;;;;;;-0.87;59.05;100748.19;5071234;28;20047;-21
2022/01/23 08:40:05;;;;;;;13.65;4.90;;;;;;;-0.79;57.15;100757.19;5069130;28;20411;-22
2022/01/23 08:42:30;;;;;;;13.43;6.72;;;;;;;-0.74;57.69;100758.44;5070685;28;20039;-21
2022/01/23 08:44:56;;;;;;;14.98;6.57;;;;;;;-0.63;58.73;100754.94;5070800;28;20199;-21
2022/01/23 08:47:23;;;;;;;14.00;6.78;;;;;;;-0.65;57.96;100747.22;5070378;28;20554;-21
2022/01/23 08:49:49;;;;;;;9.25;5.32;;;;;;;-0.53;57.16;100734.88;5070362;28;20111;-21
2022/01/23 08:52:17;;;;;;;9.88;5.72;;;;;;;-0.22;56.68;100748.78;5069768;28;20028;-21
2022/01/23 08:54:44;;;;;;;8.82;4.40;;;;;;;-0.27;55.61;100734.41;5070026;28;20427;-20
2022/01/23 08:57:10;;;;;;;11.95;5.57;;;;;;;-0.16;56.32;100723.84;5068492;28;20040;-22
2022/01/23 08:59:36;;;;;;;10.57;5.45;;;;;;;0.16;55.62;100749.91;5069816;28;20477;-22
2022/01/23 09:02:01;;;;;;;12.15;5.82;;;;;;;0.16;55.64;100722.81;5069502;28;20044;-22
2022/01/23 09:04:27;;;;;;;9.70;5.35;;;;;;;-0.33;54.98;100721.84;5069634;28;20480;-21
2022/01/23 09:06:52;;;;;;;9.50;5.65;;;;;;;-0.37;55.82;100728.31;5068278;28;20056;-21
2022/01/23 09:09:19;;;;;;;10.15;4.88;;;;;;;-0.38;55.38;100710.94;5070332;28;20028;-21
2022/01/23 09:13:03;;;;;;;10.05;5.30;;;;;;;-0.45;56.26;100714.09;5069383;28;20037;-22
2022/01/23 09:14:40;;;;;;;11.25;5.40;;;;;;;-0.53;56.31;100721.78;5060269;28;20629;-21
2022/01/23 09:17:06;;;;;;;10.02;5.35;;;;;;;-0.55;56.88;100707.97;5069159;28;20249;-21
2022/01/23 09:19:32;;;;;;;11.43;5.63;;;;;;;-0.34;56.31;100714.97;5069551;28;20104;-21
2022/01/23 09:21:58;;;;;;;17.55;9.38;;;;;;;-0.13;55.32;100699.16;5069265;28;20040;-21
2022/01/23 09:24:24;;;;;;;7.85;4.88;;;;;;;-0.44;55.37;100700.00;5067460;28;20037;-21
2022/01/23 09:26:54;;;;;;;11.48;6.57;;;;;;;-0.18;55.32;100715.28;5069347;28;20036;-21
2022/01/23 09:29:30;;;;;;;10.85;5.68;;;;;;;-0.26;55.53;100699.41;5068584;28;20036;-20
2022/01/23 09:31:56;;;;;;;11.65;5.63;;;;;;;-0.31;55.35;100706.81;5069063;28;20032;-21
2022/01/23 09:34:25;;;;;;;10.13;4.78;;;;;;;-0.40;55.90;100684.88;5069222;28;20103;-20
2022/01/23 09:36:51;;;;;;;13.27;7.63;;;;;;;-0.14;54.99;100685.22;5069235;28;20028;-21
2022/01/23 09:39:17;;;;;;;8.95;4.78;;;;;;;0.08;53.61;100701.69;5069076;28;20032;-21
2022/01/23 09:41:49;;;;;;;22.75;13.25;;;;;;;0.61;53.65;100703.94;5068987;28;20182;-23
2022/01/23 09:44:16;;;;;;;8.10;4.47;;;;;;;0.37;51.12;100675.50;5067808;28;20035;-21
2022/01/23 09:46:42;;;;;;;11.65;6.85;;;;;;;0.50;52.37;100683.09;5071642;28;20040;-21
2022/01/23 09:49:09;;;;;;;21.55;10.85;;;;;;;0.87;52.62;100680.56;5068722;28;20028;-21
2022/01/23 09:51:34;;;;;;;8.10;4.63;;;;;;;0.39;50.72;100686.69;5068640;28;20569;-21
2022/01/23 09:53:59;;;;;;;11.07;6.32;;;;;;;0.35;51.65;100677.44;5069328;28;20032;-22
2022/01/23 09:56:27;;;;;;;7.60;4.60;;;;;;;0.41;51.97;100674.25;5068229;28;20400;-21
2022/01/23 09:58:54;;;;;;;7.47;5.22;;;;;;;0.06;51.74;100653.78;5068137;28;20119;-21
2022/01/23 10:01:20;;;;;;;10.95;7.25;;;;;;;0.07;51.83;100661.53;5069053;28;20041;-20
2022/01/23 10:03:46;;;;;;;13.43;7.43;;;;;;;0.06;52.50;100632.81;5067678;28;20040;-20
2022/01/23 10:06:11;;;;;;;17.48;11.73;;;;;;;0.20;51.90;100645.50;5067386;28;20036;-22
2022/01/23 10:08:37;;;;;;;11.43;5.78;;;;;;;0.49;52.47;100660.44;5068901;28;20036;-21
2022/01/23 10:11:08;;;;;;;27.42;13.38;;;;;;;0.50;51.27;100670.78;5069034;28;20021;-21
2022/01/23 10:13:33;;;;;;;23.80;12.38;;;;;;;0.86;52.49;100651.81;5067785;28;20599;-21
2022/01/23 10:15:59;;;;;;;13.82;7.43;;;;;;;0.68;51.07;100644.69;5050490;28;20020;-21
2022/01/23 10:18:24;;;;;;;12.57;6.18;;;;;;;0.61;51.24;100654.06;5050972;28;20472;-21
2022/01/23 10:20:50;;;;;;;16.33;9.32;;;;;;;0.46;51.34;100645.78;5068686;28;20550;-22
2022/01/23 10:23:15;;;;;;;11.05;5.57;;;;;;;0.49;50.46;100648.16;5068383;28;20060;-20
2022/01/23 10:25:42;;;;;;;12.00;6.45;;;;;;;0.53;50.98;100638.19;5068333;28;20059;-21
2022/01/23 10:28:14;;;;;;;14.63;9.52;;;;;;;0.59;51.57;100632.38;5067032;28;20086;-21
2022/01/23 10:31:00;;;;;;;12.00;4.93;;;;;;;0.71;50.24;100628.63;5068402;28;20089;-21
2022/01/23 10:33:33;;;;;;;8.02;3.95;;;;;;;0.52;50.88;100644.41;5066881;28;20051;-22
2022/01/23 10:36:01;;;;;;;9.73;5.72;;;;;;;1.02;49.93;100641.56;5068596;28;20024;-21
2022/01/23 10:38:31;;;;;;;11.52;6.72;;;;;;;1.10;48.71;100649.53;5068550;28;20040;-20
2022/01/23 10:41:08;;;;;;;24.77;12.73;;;;;;;1.09;47.99;100637.41;5067571;28;20225;-22
2022/01/23 10:49:01;;;;;;;10.98;6.43;;;;;;;0.63;48.66;100619.81;5068351;28;20788;-21
2022/01/23 10:51:36;;;;;;;14.27;6.55;;;;;;;0.91;49.01;100634.69;5068248;28;20045;-21
2022/01/23 10:54:06;;;;;;;12.35;7.30;;;;;;;1.14;49.01;100644.84;5067963;28;20151;-21
2022/01/23 10:56:34;;;;;;;19.35;9.90;;;;;;;1.16;49.04;100622.69;5067899;28;20037;-21
2022/01/23 10:59:06;;;;;;;24.17;11.53;;;;;;;1.10;47.35;100639.03;5067072;28;20108;-21
2022/01/23 11:01:32;;;;;;;11.73;4.18;;;;;;;0.76;47.09;100631.69;5068365;28;20115;-21
2022/01/23 11:04:11;;;;;;;14.43;7.50;;;;;;;0.91;46.27;100629.44;5066581;28;20044;-21
2022/01/23 11:06:56;;;;;;;20.75;11.52;;;;;;;1.29;47.84;100626.81;5050344;28;20041;-21
2022/01/23 11:09:26;;;;;;;11.07;5.65;;;;;;;0.86;47.09;100589.66;5068041;28;20092;-21
2022/01/23 11:12:00;;;;;;;7.93;3.45;;;;;;;0.80;47.68;100612.03;5067579;28;20036;-21
2022/01/23 11:17:22;;;;;;;12.45;5.30;;;;;;;1.29;47.54;100606.63;5066427;28;20035;-21
2022/01/23 11:20:08;;;;;;;10.95;4.90;;;;;;;1.80;47.09;100607.06;5066363;28;20492;-21
2022/01/23 11:22:39;;;;;;;18.13;8.43;;;;;;;1.85;46.55;100609.22;5067474;28;20044;-21
2022/01/23 11:25:07;;;;;;;6.45;3.65;;;;;;;1.79;46.14;100606.22;5067658;28;20056;-21
2022/01/23 11:27:37;;;;;;;10.57;3.50;;;;;;;1.24;46.85;100602.78;5067724;28;20079;-21
2022/01/23 11:30:10;;;;;;;7.32;3.85;;;;;;;1.11;47.42;100598.69;5067488;28;20032;-21
2022/01/23 11:32:39;;;;;;;10.32;4.78;;;;;;;0.96;49.32;100587.81;5066521;28;20107;-22
2022/01/23 11:35:12;;;;;;;9.27;4.07;;;;;;;0.65;46.09;100586.38;5067614;28;20411;-21
2022/01/23 11:37:50;;;;;;;7.47;3.97;;;;;;;0.80;47.36;100592.84;5067778;28;20093;-21
2022/01/23 11:54:04;;;;;;;6.47;3.95;;;;;;;0.75;47.67;100609.00;5069871;28;20519;-21
2022/01/23 11:56:36;;;;;;;9.15;4.10;;;;;;;0.69;48.47;100609.56;5070254;28;20044;-20
2022/01/23 11:59:19;;;;;;;9.65;4.35;;;;;;;0.86;48.79;100615.06;5069999;28;20028;-21
2022/01/23 12:01:46;;;;;;;7.78;3.78;;;;;;;0.70;49.42;100608.63;5070398;28;20035;-20
2022/01/23 12:04:19;;;;;;;8.77;4.17;;;;;;;0.76;49.45;100600.16;5052643;28;20492;-22
2022/01/23 12:07:06;;;;;;;7.15;4.07;;;;;;;0.58;46.91;100596.63;5068778;28;20096;-22
2022/01/23 12:09:31;;;;;;;7.55;3.42;;;;;;;0.38;47.22;100594.00;5068636;28;20032;-21
2022/01/23 12:12:29;;;;;;;8.38;4.45;;;;;;;0.60;49.31;100586.81;5068272;28;20120;-21
2022/01/23 12:18:21;;;;;;;13.10;4.38;;;;;;;0.58;50.20;100591.38;5069840;28;20472;-21
2022/01/23 12:20:48;;;;;;;10.18;5.03;;;;;;;0.71;51.24;100563.00;5069615;28;20032;-21
2022/01/23 12:23:16;;;;;;;8.23;4.53;;;;;;;0.75;48.20;100590.63;5069868;28;20039;-21
2022/01/23 12:25:45;;;;;;;;;;;;;;;0.99;48.25;100597.19;5068414;28;20061;-21
2022/01/23 12:28:34;;;;;;;8.90;3.90;;;;;;;0.72;49.61;100608.47;5069298;28;19920;-21
2022/01/23 12:31:12;;;;;;;8.85;4.07;;;;;;;0.58;49.31;100612.38;5069251;28;20021;-21
2022/01/23 12:33:53;;;;;;;9.23;4.43;;;;;;;0.78;48.72;100608.72;5069352;28;20031;-21
2022/01/23 12:36:23;;;;;;;8.27;3.47;;;;;;;0.83;48.43;100589.09;5067742;28;20035;-21
2022/01/23 12:39:09;;;;;;;7.25;3.88;;;;;;;0.87;49.23;100607.03;5069170;28;20123;-21
2022/01/23 12:41:35;;;;;;;9.90;5.28;;;;;;;0.82;48.84;100603.19;5058544;28;20044;-22
2022/01/23 12:44:28;;;;;;;10.27;5.22;;;;;;;0.68;49.02;100607.09;5068922;28;20028;-22
2022/01/23 12:47:01;;;;;;;10.18;4.75;;;;;;;0.52;49.77;100587.50;5065966;28;20098;-21
2022/01/23 12:49:31;;;;;;;9.90;5.32;;;;;;;0.59;49.33;100608.75;5067315;28;20099;-21
2022/01/23 12:52:06;;;;;;;9.95;5.28;;;;;;;0.66;50.48;100609.88;5068691;28;20032;-21
2022/01/23 12:54:32;;;;;;;8.40;4.15;;;;;;;0.55;50.30;100591.63;5068753;28;20036;-21
2022/01/23 12:57:05;;;;;;;11.55;5.40;;;;;;;0.82;49.87;100608.44;5068843;28;20123;-20
2022/01/23 12:59:34;;;;;;;10.63;5.10;;;;;;;0.38;49.32;100578.25;5068497;28;20028;-21
2022/01/23 13:02:03;;;;;;;6.65;4.25;;;;;;;0.47;50.07;100584.50;5068509;28;20036;-21
2022/01/23 13:04:38;;;;;;;7.82;4.47;;;;;;;0.29;50.85;100613.22;5067669;28;20021;-21
2022/01/23 13:07:10;;;;;;;10.15;5.32;;;;;;;0.37;50.64;100597.63;5068889;28;20488;-21
2022/01/23 13:12:36;;;;;;;11.48;5.32;;;;;;;0.06;51.61;100606.56;5068846;28;20036;-21
2022/01/23 13:18:20;;;;;;;9.45;4.22;;;;;;;-0.05;51.90;100615.41;5068559;28;20034;-21
2022/01/23 13:31:43;;;;;;;11.20;6.20;;;;;;;-0.04;52.95;100601.31;5068530;28;20036;-21
2022/01/23 13:34:30;;;;;;;10.30;5.65;;;;;;;-0.01;52.45;100625.47;5068368;28;20051;-21
2022/01/23 13:37:03;;;;;;;11.80;5.47;;;;;;;-0.10;51.58;100625.47;5067828;28;20121;-20
2022/01/23 13:39:54;;;;;;;12.98;5.50;;;;;;;0.00;51.74;100628.97;5066868;28;20044;-21
2022/01/23 13:42:47;;;;;;;10.90;5.20;;;;;;;-0.05;52.70;100618.03;5068222;28;20061;-21
2022/01/23 13:53:31;;;;;;;36.83;15.95;;;;;;;0.09;51.43;100637.78;5066661;28;20101;-21
2022/01/23 13:59:25;;;;;;;28.48;13.27;;;;;;;0.53;49.85;100646.91;5013856;28;20980;-22
2022/01/23 14:01:57;;;;;;;28.88;14.57;;;;;;;0.11;49.92;100620.94;5024939;28;20493;-21
2022/01/23 14:04:24;;;;;;;17.27;8.95;;;;;;;0.11;51.14;100633.25;5046114;28;20044;-21
2022/01/23 14:06:49;;;;;;;31.42;16.23;;;;;;;0.53;51.25;100625.91;5050214;28;20025;-21
2022/01/23 14:09:15;;;;;;;45.40;27.20;;;;;;;0.84;51.40;100625.72;5066837;28;20412;-21
2022/01/23 14:11:41;;;;;;;23.15;12.60;;;;;;;0.73;50.52;100616.19;5068027;28;20040;-21
2022/01/23 14:14:16;;;;;;;14.10;7.60;;;;;;;0.53;49.99;100614.56;5067632;28;20031;-21
2022/01/23 14:16:42;;;;;;;23.05;15.75;;;;;;;0.35;50.49;100622.34;5066723;28;20511;-23
2022/01/23 14:19:21;;;;;;;23.73;15.18;;;;;;;0.43;51.66;100640.00;5068236;28;20033;-21
2022/01/23 14:21:59;;;;;;;20.58;13.43;;;;;;;0.15;50.33;100617.06;5067612;28;20062;-21
2022/01/23 14:24:37;;;;;;;;;;;;;;;0.26;50.79;100639.72;5066511;28;20047;-22
2022/01/23 14:27:10;;;;;;;15.65;9.93;;;;;;;0.24;51.67;100620.66;5065975;28;19916;-21
2022/01/23 14:29:53;;;;;;;17.33;11.32;;;;;;;0.21;51.55;100626.19;5067655;28;20062;-21
2022/01/23 14:32:29;;;;;;;21.95;13.32;;;;;;;0.27;51.45;100628.28;5067479;28;20044;-21
2022/01/23 14:35:13;;;;;;;42.95;26.45;;;;;;;0.43;51.48;100640.84;5067379;28;20056;-21
2022/01/23 14:37:40;;;;;;;46.38;23.67;;;;;;;0.15;52.16;100618.88;5067504;28;20035;-22
2022/01/23 14:40:12;;;;;;;25.98;13.68;;;;;;;0.19;51.50;100644.69;5067195;28;20035;-21
2022/01/23 14:42:38;;;;;;;16.60;10.45;;;;;;;0.23;51.93;100639.19;5067232;28;20044;-24
2022/01/23 14:45:08;;;;;;;16.85;9.43;;;;;;;0.08;52.63;100638.75;5067181;28;20035;-21
2022/01/23 14:47:36;;;;;;;11.07;7.38;;;;;;;0.14;52.08;100638.19;5067066;28;20040;-21
2022/01/23 14:50:06;;;;;;;13.60;6.07;;;;;;;-0.11;51.93;100634.31;5067210;28;20036;-21
2022/01/23 14:52:32;;;;;;;10.07;5.13;;;;;;;-0.05;51.48;100636.38;5067309;28;20095;-21